Time;durP1;ratioP1;P1;durP2;ratioP2;P2;SDS_P1;SDS_P2;PMS_P1;PMS_P2;Temp;Humidity;BMP_temperature;BMP_pressure;BME280_temperature;BME280_humidity;BME280_pressure;Samples;Min_cycle;Max_cycle;Signal;HPM_P1;HPM_P2
2023/05/14 00:00:51;;;;;;;3.87;3.10;;;;;;;16.46;54.49;101992.59;6227210;28;20322;-70
2023/05/14 00:04:12;;;;;;;3.70;3.30;;;;;;;16.33;54.69;101994.78;6213204;28;20651;-71
2023/05/14 00:07:35;;;;;;;3.57;3.27;;;;;;;16.41;54.85;101989.47;6209780;28;20347;-71
2023/05/14 00:10:55;;;;;;;2.80;2.60;;;;;;;16.33;55.08;101992.06;6223879;28;20236;-72
2023/05/14 00:14:16;;;;;;;4.87;3.93;;;;;;;16.20;55.09;101984.22;6220045;28;20511;-71
2023/05/14 00:17:37;;;;;;;3.40;2.87;;;;;;;16.18;55.39;101982.63;6215243;28;20521;-70
2023/05/14 00:20:58;;;;;;;2.90;2.57;;;;;;;16.08;55.96;101970.91;6228821;28;20501;-72
2023/05/14 00:24:20;;;;;;;3.73;3.33;;;;;;;16.16;56.01;101971.91;6208762;28;20232;-71
2023/05/14 00:27:41;;;;;;;3.67;3.27;;;;;;;16.02;56.16;101970.47;6217385;28;20236;-71
2023/05/14 00:31:02;;;;;;;5.43;4.03;;;;;;;15.80;56.36;101965.34;6217471;28;20602;-72
2023/05/14 00:34:22;;;;;;;4.30;3.97;;;;;;;15.86;56.99;101961.19;6194738;28;20236;-72
2023/05/14 00:37:44;;;;;;;6.57;3.73;;;;;;;15.84;56.75;101958.63;6195157;28;20264;-71
2023/05/14 00:41:06;;;;;;;4.53;3.33;;;;;;;15.90;57.35;101958.03;6225113;28;20224;-70
2023/05/14 00:44:27;;;;;;;5.20;4.23;;;;;;;15.91;56.53;101954.31;6225272;28;20250;-71
2023/05/14 00:47:48;;;;;;;4.33;3.97;;;;;;;15.83;56.86;101947.88;6216146;28;20224;-70
2023/05/14 00:51:09;;;;;;;5.53;4.00;;;;;;;15.73;57.04;101953.31;6216404;28;20494;-71
2023/05/14 00:54:30;;;;;;;4.33;3.67;;;;;;;15.58;57.41;101968.31;6217177;28;20224;-70
2023/05/14 00:57:54;;;;;;;4.23;3.13;;;;;;;15.57;57.71;101968.47;6208806;28;20240;-71
2023/05/14 01:01:15;;;;;;;4.30;2.53;;;;;;;15.57;57.48;101974.78;6212548;28;20220;-70
2023/05/14 01:04:37;;;;;;;3.97;3.63;;;;;;;15.54;57.73;101976.94;6226845;28;20225;-71
2023/05/14 01:08:05;;;;;;;4.87;3.67;;;;;;;15.65;57.63;101966.75;6214163;28;20564;-71
2023/05/14 01:11:29;;;;;;;3.07;2.87;;;;;;;15.73;57.40;101985.06;6202836;28;20236;-70
2023/05/14 01:14:57;;;;;;;4.47;3.60;;;;;;;15.72;57.52;101972.50;6221095;28;20232;-71
2023/05/14 01:18:19;;;;;;;3.90;3.60;;;;;;;15.65;57.66;101976.78;6191307;28;20241;-71
2023/05/14 01:21:43;;;;;;;3.93;3.33;;;;;;;15.55;57.60;101975.91;6217741;28;20224;-71
2023/05/14 01:25:05;;;;;;;4.33;3.90;;;;;;;15.50;57.92;101976.31;6228397;28;20232;-71
2023/05/14 01:28:32;;;;;;;3.50;2.70;;;;;;;15.45;57.60;101978.63;6197918;28;20245;-70
2023/05/14 01:31:58;;;;;;;4.23;2.97;;;;;;;15.39;58.38;101973.72;6202898;28;20236;-71
2023/05/14 01:35:22;;;;;;;3.10;2.90;;;;;;;15.44;57.73;101973.31;6214167;28;20244;-70
2023/05/14 01:38:46;;;;;;;2.73;2.17;;;;;;;15.45;57.77;101975.91;6190405;28;20244;-72
2023/05/14 01:42:08;;;;;;;5.27;3.00;;;;;;;15.36;57.72;101971.28;6204714;28;20221;-71
2023/05/14 01:45:30;;;;;;;3.37;3.07;;;;;;;15.25;58.54;101959.69;6224498;28;20574;-70
2023/05/14 01:48:51;;;;;;;4.13;3.30;;;;;;;15.27;58.01;101969.38;6217059;28;21097;-70
2023/05/14 01:52:12;;;;;;;3.27;3.03;;;;;;;15.09;59.09;101966.50;6201481;28;20224;-71
2023/05/14 01:55:34;;;;;;;3.07;2.77;;;;;;;15.15;58.67;101960.50;6221336;28;20229;-71
2023/05/14 01:58:55;;;;;;;4.00;2.80;;;;;;;15.11;58.70;101950.91;6193605;28;20601;-70
2023/05/14 02:02:17;;;;;;;3.23;3.00;;;;;;;15.21;58.60;101956.34;6206576;28;20241;-71
2023/05/14 02:05:37;;;;;;;4.77;3.63;;;;;;;15.02;59.58;101961.72;6229498;28;20229;-70
2023/05/14 02:08:59;;;;;;;4.40;3.37;;;;;;;15.03;59.14;101964.34;6214516;28;20630;-71
2023/05/14 02:12:21;;;;;;;3.83;3.03;;;;;;;14.94;58.98;101957.00;6195545;28;20225;-71
2023/05/14 02:15:43;;;;;;;3.50;3.20;;;;;;;14.76;59.25;101955.06;6229987;28;20630;-71
2023/05/14 02:19:04;;;;;;;3.80;3.50;;;;;;;14.75;59.74;101959.63;6220521;28;20618;-71
2023/05/14 02:22:25;;;;;;;4.03;3.67;;;;;;;14.69;59.96;101956.59;6215912;28;20232;-71
2023/05/14 02:25:46;;;;;;;3.83;3.03;;;;;;;14.80;60.32;101953.81;6233041;28;20594;-70
2023/05/14 02:29:08;;;;;;;3.00;2.80;;;;;;;14.72;60.01;101959.06;6217679;28;20228;-70
2023/05/14 02:32:29;;;;;;;3.13;2.93;;;;;;;14.86;59.58;101954.13;6232926;28;20323;-71
2023/05/14 02:35:50;;;;;;;3.30;3.10;;;;;;;14.87;60.00;101955.00;6217725;28;20232;-71
2023/05/14 02:39:12;;;;;;;2.47;2.37;;;;;;;14.76;60.10;101952.38;6224753;28;20236;-71
2023/05/14 02:42:33;;;;;;;2.90;2.60;;;;;;;14.71;60.59;101943.75;6230514;28;20232;-72
2023/05/14 02:45:55;;;;;;;2.87;2.67;;;;;;;14.63;60.79;101944.44;6231402;28;20653;-70
2023/05/14 02:49:16;;;;;;;3.83;2.50;;;;;;;14.61;60.80;101940.16;6228667;28;20303;-70
2023/05/14 02:52:37;;;;;;;5.07;2.70;;;;;;;14.58;61.28;101937.72;6168580;28;20237;-70
2023/05/14 02:55:58;;;;;;;3.20;2.97;;;;;;;14.59;61.07;101944.84;6214293;28;20223;-71
2023/05/14 02:59:19;;;;;;;2.73;2.30;;;;;;;14.48;61.48;101934.94;6213578;28;20236;-71
2023/05/14 03:02:42;;;;;;;7.03;3.57;;;;;;;14.49;61.30;101935.81;6214209;28;20229;-71
2023/05/14 03:06:03;;;;;;;4.60;3.63;;;;;;;14.41;61.56;101944.63;6211447;28;20617;-71
2023/05/14 03:09:24;;;;;;;3.70;3.27;;;;;;;14.42;61.43;101932.78;6193713;28;20228;-71
2023/05/14 03:12:45;;;;;;;4.27;3.83;;;;;;;14.41;61.81;101934.63;6225046;28;20229;-70
2023/05/14 03:16:06;;;;;;;4.33;3.60;;;;;;;14.39;61.75;101933.06;6216705;28;20602;-71
2023/05/14 03:19:28;;;;;;;3.00;2.80;;;;;;;14.28;62.60;101925.88;6200901;28;20249;-71
2023/05/14 03:22:49;;;;;;;2.60;2.40;;;;;;;14.13;62.73;101926.28;6231885;28;20224;-71
2023/05/14 03:26:10;;;;;;;5.23;4.67;;;;;;;14.34;62.61;101932.59;6230863;28;20596;-72
2023/05/14 03:29:31;;;;;;;3.37;3.17;;;;;;;14.16;62.72;101939.59;6218958;28;20228;-72
2023/05/14 03:32:52;;;;;;;5.50;3.53;;;;;;;14.16;62.82;101940.44;6214111;28;20229;-71
2023/05/14 03:36:13;;;;;;;3.90;3.33;;;;;;;14.18;62.93;101948.47;6221631;28;20237;-71
2023/05/14 03:39:34;;;;;;;3.93;3.60;;;;;;;14.10;63.04;101951.81;6230237;28;20236;-71
2023/05/14 03:42:58;;;;;;;3.97;3.60;;;;;;;14.15;62.99;101956.84;6209573;28;20240;-71
2023/05/14 03:46:19;;;;;;;13.43;5.07;;;;;;;14.14;63.61;101947.84;6227649;28;20311;-72
2023/05/14 03:49:40;;;;;;;3.37;3.07;;;;;;;14.09;63.79;101944.69;6216887;28;20231;-71
2023/05/14 03:53:05;;;;;;;3.50;3.27;;;;;;;14.19;63.64;101940.19;6221357;28;20224;-71
2023/05/14 03:56:26;;;;;;;3.23;2.93;;;;;;;14.18;63.80;101943.91;6227980;28;20228;-71
2023/05/14 03:59:47;;;;;;;3.67;3.37;;;;;;;14.20;63.93;101949.19;6209236;28;20323;-71
2023/05/14 04:03:08;;;;;;;3.97;3.37;;;;;;;14.23;63.81;101943.47;6227353;28;20233;-71
2023/05/14 04:06:29;;;;;;;3.83;3.47;;;;;;;14.29;63.40;101945.69;6215363;28;20247;-70
2023/05/14 04:09:52;;;;;;;5.97;3.30;;;;;;;14.15;63.90;101951.44;6226683;28;20228;-71
2023/05/14 04:13:13;;;;;;;6.13;3.87;;;;;;;14.32;63.52;101946.31;6221296;28;20320;-71
2023/05/14 04:16:34;;;;;;;8.90;3.70;;;;;;;14.37;63.73;101943.19;6207061;28;20275;-71
2023/05/14 04:19:55;;;;;;;4.97;4.47;;;;;;;14.42;63.84;101943.63;6225030;28;20236;-72
2023/05/14 04:23:15;;;;;;;4.30;4.00;;;;;;;14.47;63.53;101937.81;6209145;28;20247;-72
2023/05/14 04:26:38;;;;;;;3.63;3.33;;;;;;;14.51;63.30;101948.25;6225935;28;20228;-71
2023/05/14 04:29:59;;;;;;;4.13;3.77;;;;;;;14.55;63.51;101946.13;6228350;28;20224;-71
2023/05/14 04:33:20;;;;;;;3.43;3.13;;;;;;;14.53;63.21;101939.97;6213708;28;20233;-71
2023/05/14 04:36:40;;;;;;;3.90;3.50;;;;;;;14.72;62.59;101940.94;6234091;28;20910;-72
2023/05/14 04:40:02;;;;;;;4.33;3.67;;;;;;;14.74;62.66;101936.22;6227847;28;20553;-72
2023/05/14 04:43:24;;;;;;;6.60;3.90;;;;;;;14.73;62.34;101937.19;6226305;28;20519;-70
2023/05/14 04:46:45;;;;;;;6.07;3.80;;;;;;;14.74;62.79;101930.78;6226071;28;20236;-72
2023/05/14 04:50:08;;;;;;;3.60;3.30;;;;;;;14.94;62.51;101939.84;6211923;28;20232;-72
2023/05/14 04:53:28;;;;;;;3.27;3.07;;;;;;;14.94;62.02;101942.56;6233743;28;20582;-73
2023/05/14 04:56:51;;;;;;;3.80;3.50;;;;;;;14.85;62.09;101938.81;6224165;28;20523;-71
2023/05/14 05:00:15;;;;;;;3.93;3.17;;;;;;;14.95;61.83;101945.16;6222890;28;20225;-71
2023/05/14 05:03:35;;;;;;;4.37;4.00;;;;;;;15.04;62.45;101938.88;6228328;28;20233;-71
2023/05/14 05:06:57;;;;;;;3.90;3.60;;;;;;;15.21;61.16;101935.50;6226636;28;20225;-72
2023/05/14 05:10:17;;;;;;;3.43;3.13;;;;;;;15.20;60.66;101941.06;6231902;28;20224;-71
2023/05/14 05:13:38;;;;;;;5.33;4.03;;;;;;;15.26;60.85;101939.66;6231698;28;20613;-71
2023/05/14 05:17:00;;;;;;;3.90;3.67;;;;;;;15.39;61.06;101938.41;6229125;28;20232;-71
2023/05/14 05:20:22;;;;;;;3.80;3.07;;;;;;;15.35;60.17;101939.69;6231379;28;20229;-71
2023/05/14 05:23:43;;;;;;;3.63;2.77;;;;;;;15.52;59.78;101938.16;6226096;28;20261;-71
2023/05/14 05:27:04;;;;;;;3.07;2.87;;;;;;;15.62;59.69;101929.00;6228154;28;20328;-71
2023/05/14 05:30:25;;;;;;;3.73;3.00;;;;;;;15.54;59.38;101939.72;6230765;28;21162;-71
2023/05/14 05:33:48;;;;;;;3.07;2.77;;;;;;;15.59;59.24;101947.44;6230886;28;20494;-71
2023/05/14 05:37:11;;;;;;;4.10;2.93;;;;;;;15.79;59.24;101943.75;6230355;28;20249;-71
2023/05/14 05:40:32;;;;;;;7.33;3.50;;;;;;;15.72;59.03;101940.72;6225474;28;20488;-71
2023/05/14 05:43:56;;;;;;;3.10;2.90;;;;;;;15.67;59.35;101943.00;6237210;28;20268;-71
2023/05/14 05:47:17;;;;;;;4.23;3.40;;;;;;;15.75;58.74;101936.88;6224277;28;20227;-71
2023/05/14 05:50:39;;;;;;;5.50;3.17;;;;;;;15.99;58.49;101945.44;6228732;28;20252;-72
2023/05/14 05:54:00;;;;;;;3.57;3.27;;;;;;;16.13;58.15;101942.25;6232922;28;20231;-72
2023/05/14 05:57:22;;;;;;;3.10;2.90;;;;;;;16.13;58.27;101949.56;6228142;28;20291;-71
2023/05/14 06:00:48;;;;;;;3.17;2.87;;;;;;;16.20;58.32;101937.97;6224633;28;20244;-71
2023/05/14 06:04:09;;;;;;;5.73;3.30;;;;;;;16.27;58.08;101951.84;6225331;28;20228;-72
2023/05/14 06:07:31;;;;;;;3.60;2.73;;;;;;;16.15;58.05;101937.53;6229336;28;20232;-72
2023/05/14 06:10:52;;;;;;;4.77;3.27;;;;;;;16.36;57.85;101940.91;6226125;28;20228;-71
2023/05/14 06:14:13;;;;;;;3.27;2.97;;;;;;;16.40;58.03;101936.88;6233563;28;20323;-71
2023/05/14 06:17:33;;;;;;;4.20;2.80;;;;;;;16.67;57.68;101942.41;6228061;28;20236;-71
2023/05/14 06:20:55;;;;;;;3.30;2.80;;;;;;;16.81;57.61;101942.94;6218502;28;20245;-71
2023/05/14 06:24:18;;;;;;;3.27;2.97;;;;;;;16.82;57.56;101942.78;6229155;28;20228;-71
2023/05/14 06:27:39;;;;;;;2.73;2.53;;;;;;;17.08;57.24;101941.09;6229171;28;20240;-71
2023/05/14 06:31:00;;;;;;;3.60;3.33;;;;;;;17.43;56.44;101941.16;6228816;28;20232;-71
2023/05/14 06:34:21;;;;;;;3.67;3.03;;;;;;;17.47;55.65;101936.22;6229368;28;20363;-72
2023/05/14 06:37:42;;;;;;;2.33;2.23;;;;;;;17.76;55.51;101934.16;6222330;28;20232;-72
2023/05/14 06:41:04;;;;;;;3.97;3.70;;;;;;;17.35;55.39;101937.47;6221069;28;20319;-71
2023/05/14 06:44:25;;;;;;;3.23;3.03;;;;;;;17.75;55.42;101940.66;6205335;28;20236;-70
2023/05/14 06:47:45;;;;;;;3.23;3.00;;;;;;;17.96;54.82;101935.69;6219633;28;20244;-72
2023/05/14 06:51:06;;;;;;;4.67;3.37;;;;;;;18.22;54.14;101933.84;6228707;28;20257;-72
2023/05/14 06:54:27;;;;;;;2.40;2.20;;;;;;;18.16;54.11;101931.78;6221669;28;20281;-72
2023/05/14 06:57:50;;;;;;;2.50;2.30;;;;;;;18.51;53.97;101927.25;6218654;28;20579;-72
2023/05/14 07:01:11;;;;;;;2.70;2.50;;;;;;;18.85;53.16;101928.09;6211913;28;20619;-70
2023/05/14 07:04:32;;;;;;;3.17;2.40;;;;;;;18.37;53.09;101928.66;6219490;28;20232;-73
2023/05/14 07:07:53;;;;;;;3.20;2.90;;;;;;;18.61;53.03;101923.38;6223505;28;20324;-71
2023/05/14 07:11:15;;;;;;;1.73;1.63;;;;;;;18.57;52.90;101919.25;6226757;28;20236;-72
2023/05/14 07:14:37;;;;;;;2.57;2.37;;;;;;;18.77;52.33;101914.41;6228634;28;20315;-71
2023/05/14 07:17:58;;;;;;;2.53;2.33;;;;;;;18.72;51.88;101906.69;6222024;28;20233;-70
2023/05/14 07:21:19;;;;;;;2.93;2.60;;;;;;;18.71;52.13;101915.91;6225279;28;20232;-71
2023/05/14 07:24:40;;;;;;;2.65;2.03;;;;;;;19.04;51.92;101906.84;6228171;28;20233;-72
2023/05/14 07:28:01;;;;;;;4.60;2.10;;;;;;;18.90;51.93;101903.91;6229643;28;20579;-72
2023/05/14 07:31:23;;;;;;;4.63;2.40;;;;;;;19.04;51.44;101904.13;6214482;28;20233;-71
2023/05/14 07:34:43;;;;;;;3.08;2.58;;;;;;;19.09;51.54;101896.25;6207765;28;20233;-71
2023/05/14 07:38:05;;;;;;;3.22;2.40;;;;;;;19.40;50.88;101896.50;6226610;28;20493;-71
2023/05/14 07:41:26;;;;;;;3.60;2.63;;;;;;;19.51;50.22;101888.00;6225258;28;20228;-72
2023/05/14 07:44:46;;;;;;;3.55;2.35;;;;;;;19.74;49.37;101883.56;6230431;28;20221;-72
2023/05/14 07:48:09;;;;;;;2.67;2.47;;;;;;;19.94;48.53;101882.19;6221578;28;20240;-72
2023/05/14 07:51:30;;;;;;;3.40;3.20;;;;;;;20.49;48.14;101878.69;6210896;28;20236;-72
2023/05/14 07:54:51;;;;;;;2.95;2.65;;;;;;;19.97;48.62;101882.84;6227931;28;20229;-73
2023/05/14 07:58:12;;;;;;;2.95;2.75;;;;;;;19.98;48.79;101876.38;6208601;28;20233;-71
2023/05/14 08:01:33;;;;;;;3.78;3.38;;;;;;;20.42;51.12;101873.03;6213758;28;20233;-74
2023/05/14 08:04:55;;;;;;;3.72;3.30;;;;;;;20.68;49.36;101881.88;6227439;28;20228;-76
2023/05/14 08:08:16;;;;;;;3.53;3.22;;;;;;;21.43;49.89;101863.84;6225996;28;20588;-72
2023/05/14 08:11:38;;;;;;;11.30;10.20;;;;;;;21.55;47.70;101866.16;6224189;28;20229;-72
2023/05/14 08:14:59;;;;;;;9.30;6.10;;;;;;;21.17;46.67;101867.97;6225505;28;20653;-73
2023/05/14 08:18:20;;;;;;;25.00;13.77;;;;;;;21.19;45.62;101874.13;6230192;28;20356;-72
2023/05/14 08:21:42;;;;;;;34.72;32.15;;;;;;;21.74;44.79;101869.25;6200984;28;20236;-70
2023/05/14 08:25:04;;;;;;;26.50;23.80;;;;;;;21.96;43.34;101870.28;6229088;28;20236;-74
2023/05/14 08:28:25;;;;;;;64.30;57.33;;;;;;;22.41;42.23;101859.16;6228890;28;20638;-72
2023/05/14 08:31:46;;;;;;;13.63;9.40;;;;;;;22.76;42.20;101855.66;6229380;28;20506;-72
2023/05/14 08:35:07;;;;;;;3.72;3.35;;;;;;;22.65;41.63;101850.66;6234923;28;20503;-73
2023/05/14 08:38:30;;;;;;;2.40;2.20;;;;;;;22.19;40.32;101849.97;6224538;28;20224;-73
2023/05/14 08:41:51;;;;;;;2.92;1.63;;;;;;;21.47;41.09;101853.34;6223555;28;20228;-72
2023/05/14 08:45:17;;;;;;;1.85;1.75;;;;;;;21.62;41.11;101854.25;6225155;28;20311;-72
2023/05/14 08:48:42;;;;;;;2.55;2.35;;;;;;;22.10;41.41;101845.59;6228194;28;20319;-72
2023/05/14 08:52:03;;;;;;;1.98;1.77;;;;;;;22.33;39.96;101844.66;6217425;28;20228;-72
2023/05/14 08:55:27;;;;;;;1.60;1.50;;;;;;;22.69;40.59;101835.50;6221906;28;20500;-73
2023/05/14 08:58:57;;;;;;;3.10;2.60;;;;;;;21.86;38.88;101839.50;6235781;28;20556;-73
2023/05/14 09:02:22;;;;;;;7.38;2.25;;;;;;;21.88;39.62;101835.50;6225224;28;20236;-72
2023/05/14 09:05:48;;;;;;;1.98;1.70;;;;;;;22.33;39.22;101833.66;6225617;28;20327;-72
2023/05/14 09:09:15;;;;;;;3.38;2.60;;;;;;;22.75;37.81;101812.72;6228268;28;20236;-72
2023/05/14 09:12:37;;;;;;;3.00;2.75;;;;;;;21.84;38.83;101823.19;6220053;28;20256;-72
2023/05/14 09:15:59;;;;;;;2.70;2.25;;;;;;;22.40;38.47;101827.25;6226525;28;20232;-72
2023/05/14 09:19:20;;;;;;;1.77;1.67;;;;;;;22.45;37.60;101822.00;6224522;28;20228;-72
2023/05/14 09:22:41;;;;;;;3.70;3.05;;;;;;;23.27;38.62;101819.88;6216932;28;20355;-72
2023/05/14 09:26:05;;;;;;;2.50;2.33;;;;;;;22.85;36.33;101805.03;6225664;28;20229;-71
2023/05/14 09:29:29;;;;;;;3.17;2.47;;;;;;;22.71;37.94;101805.06;6218929;28;20237;-70
2023/05/14 09:32:53;;;;;;;2.38;1.90;;;;;;;22.89;38.72;101802.72;6211582;28;20317;-71
2023/05/14 09:36:16;;;;;;;2.28;1.40;;;;;;;22.80;36.76;101798.41;6218575;28;20221;-71
2023/05/14 09:39:38;;;;;;;2.67;2.50;;;;;;;22.75;37.03;101795.38;6223347;28;20232;-72
2023/05/14 09:43:00;;;;;;;4.25;2.60;;;;;;;22.96;36.55;101796.28;6219965;28;20589;-71
2023/05/14 09:46:22;;;;;;;1.77;1.48;;;;;;;23.00;35.87;101807.72;6227236;28;20232;-72
2023/05/14 09:49:43;;;;;;;1.63;1.45;;;;;;;22.94;35.82;101792.00;6229952;28;20224;-72
2023/05/14 09:53:05;;;;;;;3.65;1.92;;;;;;;23.33;36.84;101789.69;6210231;28;21008;-71
2023/05/14 09:56:28;;;;;;;1.75;1.40;;;;;;;22.94;35.48;101781.00;6230292;28;20225;-71
2023/05/14 09:59:49;;;;;;;2.42;2.10;;;;;;;21.79;35.74;101789.94;6226216;28;20236;-71
2023/05/14 10:03:15;;;;;;;2.75;1.65;;;;;;;21.71;35.98;101787.28;6236353;28;20228;-71
2023/05/14 10:06:38;;;;;;;1.85;1.52;;;;;;;22.25;35.81;101780.53;6226665;28;20243;-71
2023/05/14 10:10:02;;;;;;;1.80;1.70;;;;;;;22.73;35.85;101776.31;6224852;28;20584;-71
2023/05/14 10:13:30;;;;;;;1.77;1.67;;;;;;;22.74;36.00;101775.25;6220154;28;20799;-72
2023/05/14 10:16:52;;;;;;;2.10;1.63;;;;;;;23.34;35.83;101763.88;6228668;28;20236;-70
2023/05/14 10:20:16;;;;;;;3.10;2.90;;;;;;;23.50;34.96;101769.09;6227355;28;20225;-70
2023/05/14 10:23:39;;;;;;;2.95;1.90;;;;;;;22.47;36.03;101767.69;6230563;28;20236;-69
2023/05/14 10:27:00;;;;;;;2.17;2.08;;;;;;;22.47;34.87;101773.19;6229697;28;20261;-68
2023/05/14 10:30:22;;;;;;;2.00;1.90;;;;;;;22.96;34.44;101765.16;6212961;28;20570;-70
2023/05/14 10:33:49;;;;;;;3.08;2.38;;;;;;;23.71;34.24;101760.81;6219698;28;20228;-69
2023/05/14 10:37:12;;;;;;;2.35;1.85;;;;;;;24.59;33.47;101758.16;6227842;28;20228;-71
2023/05/14 10:40:33;;;;;;;1.85;1.70;;;;;;;24.09;32.81;101757.69;6224908;28;20501;-72
2023/05/14 10:43:57;;;;;;;1.98;1.88;;;;;;;24.07;33.83;101757.06;6228418;28;20906;-71
2023/05/14 10:47:18;;;;;;;1.70;1.60;;;;;;;23.82;33.58;101745.63;6225576;28;20232;-71
2023/05/14 10:50:41;;;;;;;3.17;2.80;;;;;;;23.88;33.37;101744.81;6217863;28;20225;-71
2023/05/14 10:54:04;;;;;;;1.70;1.60;;;;;;;23.80;32.79;101742.22;6223441;28;20240;-71
2023/05/14 10:57:27;;;;;;;2.17;2.08;;;;;;;23.66;33.20;101746.78;6231411;28;20224;-71
2023/05/14 11:00:48;;;;;;;2.13;1.60;;;;;;;23.88;34.76;101747.59;6220265;28;20236;-71
2023/05/14 11:04:17;;;;;;;2.70;1.98;;;;;;;23.77;33.55;101742.63;6202161;28;20677;-72
2023/05/14 11:07:39;;;;;;;2.03;1.83;;;;;;;23.96;34.85;101735.53;6221139;28;20240;-72
2023/05/14 11:11:02;;;;;;;3.45;2.33;;;;;;;23.47;34.84;101733.69;6218572;28;20233;-69
2023/05/14 11:14:23;;;;;;;2.15;1.95;;;;;;;23.70;35.63;101728.78;6229005;28;20528;-71
2023/05/14 11:17:47;;;;;;;2.22;2.03;;;;;;;24.45;35.62;101730.72;6218837;28;20232;-72
2023/05/14 11:21:07;;;;;;;2.33;2.15;;;;;;;24.46;35.20;101729.69;6232253;28;20694;-71
2023/05/14 11:24:28;;;;;;;2.67;1.55;;;;;;;23.50;34.92;101718.69;6196243;28;20233;-71
2023/05/14 11:27:54;;;;;;;2.83;2.63;;;;;;;24.00;35.44;101723.91;6215171;28;20304;-72
2023/05/14 11:31:15;;;;;;;2.22;2.03;;;;;;;23.86;34.85;101722.13;6226833;28;20228;-72
2023/05/14 11:34:36;;;;;;;2.88;2.17;;;;;;;24.53;35.80;101717.59;6224899;28;20220;-71
2023/05/14 11:37:57;;;;;;;3.08;1.65;;;;;;;23.85;33.54;101714.91;6219874;28;20244;-71
2023/05/14 11:41:20;;;;;;;2.28;2.00;;;;;;;24.15;36.30;101707.28;6223880;28;20267;-71
2023/05/14 11:44:43;;;;;;;3.53;2.35;;;;;;;23.52;34.65;101706.44;6223010;28;20225;-72
2023/05/14 11:48:13;;;;;;;2.25;2.15;;;;;;;23.43;34.58;101707.63;6226079;28;20229;-72
2023/05/14 11:51:36;;;;;;;1.92;1.80;;;;;;;23.15;33.85;101708.63;6212531;28;20306;-71
2023/05/14 11:54:56;;;;;;;2.25;1.80;;;;;;;23.34;35.63;101691.47;6214920;28;20240;-71
2023/05/14 11:58:18;;;;;;;4.47;2.40;;;;;;;23.34;33.45;101699.72;6221136;28;20237;-71
2023/05/14 12:01:41;;;;;;;2.22;2.08;;;;;;;23.17;33.55;101693.63;6219225;28;20241;-71
2023/05/14 12:05:01;;;;;;;2.78;2.28;;;;;;;23.94;35.48;101693.56;6222198;28;20240;-71
2023/05/14 12:08:25;;;;;;;5.53;3.33;;;;;;;24.47;33.02;101690.88;6222106;28;20228;-70
2023/05/14 12:11:47;;;;;;;4.28;2.75;;;;;;;25.39;31.56;101682.75;6224795;28;20241;-71
2023/05/14 12:15:12;;;;;;;1.63;1.52;;;;;;;25.59;30.55;101669.81;6224769;28;20279;-71
2023/05/14 12:18:34;;;;;;;5.88;1.83;;;;;;;26.54;30.93;101667.16;6223832;28;20323;-70
2023/05/14 12:21:55;;;;;;;3.65;3.35;;;;;;;24.71;30.70;101669.28;6222106;28;20811;-70
2023/05/14 12:25:16;;;;;;;4.38;4.00;;;;;;;26.29;30.35;101666.22;6218255;28;20513;-69
2023/05/14 12:28:42;;;;;;;4.93;3.88;;;;;;;26.64;29.59;101656.44;6226915;28;20669;-69
2023/05/14 12:32:07;;;;;;;6.07;5.57;;;;;;;27.92;29.48;101655.78;6220234;28;20227;-68
2023/05/14 12:35:29;;;;;;;7.15;4.80;;;;;;;27.67;29.48;101650.31;6210905;28;21939;-67
2023/05/14 12:38:56;;;;;;;8.80;7.50;;;;;;;28.17;28.31;101650.19;6222401;28;20228;-70
2023/05/14 12:42:17;;;;;;;7.63;5.10;;;;;;;29.82;26.44;101647.34;6218023;28;20279;-70
2023/05/14 12:45:38;;;;;;;5.70;2.72;;;;;;;31.27;24.37;101646.63;6184001;28;20229;-69
2023/05/14 12:48:59;;;;;;;4.07;2.17;;;;;;;29.64;24.29;101645.53;6214077;28;20229;-69
2023/05/14 12:52:21;;;;;;;2.75;1.98;;;;;;;29.41;25.29;101651.09;6205038;28;20537;-70
2023/05/14 12:55:42;;;;;;;3.53;2.75;;;;;;;29.36;24.95;101645.41;6224305;28;20231;-68
2023/05/14 12:59:02;;;;;;;2.83;2.63;;;;;;;30.64;24.11;101624.63;6233698;28;20224;-68
2023/05/14 13:02:23;;;;;;;2.75;2.55;;;;;;;32.83;22.63;101629.22;6230682;28;20236;-70
2023/05/14 13:05:44;;;;;;;2.40;2.00;;;;;;;33.18;21.85;101633.47;6230003;28;20241;-69
2023/05/14 13:09:07;;;;;;;2.55;2.00;;;;;;;31.59;22.34;101627.34;6237362;28;20228;-69
2023/05/14 13:12:28;;;;;;;2.53;2.25;;;;;;;30.07;23.21;101622.88;6225592;28;20533;-69
2023/05/14 13:15:54;;;;;;;3.30;2.40;;;;;;;31.01;22.22;101611.09;6225411;28;20225;-69
2023/05/14 13:19:15;;;;;;;1.98;1.85;;;;;;;31.05;22.33;101603.06;6240090;28;20232;-68
2023/05/14 13:22:36;;;;;;;3.72;2.33;;;;;;;28.94;25.18;101613.19;6242032;28;20616;-69
2023/05/14 13:25:58;;;;;;;2.28;2.17;;;;;;;28.19;26.71;101610.03;6227472;28;20320;-69
2023/05/14 13:29:19;;;;;;;2.22;2.00;;;;;;;29.18;26.19;101609.41;6233401;28;20232;-69
2023/05/14 13:32:40;;;;;;;3.72;2.13;;;;;;;27.68;28.07;101610.41;6241687;28;20236;-68
2023/05/14 13:36:00;;;;;;;2.38;2.17;;;;;;;27.94;27.87;101619.50;6235580;28;20260;-68
2023/05/14 13:39:25;;;;;;;3.15;2.95;;;;;;;28.17;28.08;101617.75;6231024;28;20589;-69
2023/05/14 13:42:47;;;;;;;2.20;2.00;;;;;;;27.94;27.45;101623.13;6232747;28;20683;-69
2023/05/14 13:46:08;;;;;;;2.95;1.92;;;;;;;28.04;27.89;101619.81;6237864;28;20234;-69
2023/05/14 13:49:29;;;;;;;1.95;1.73;;;;;;;27.84;27.45;101617.28;6234061;28;20247;-70
2023/05/14 13:52:50;;;;;;;1.85;1.65;;;;;;;26.46;29.68;101609.31;6241104;28;20224;-69
2023/05/14 13:56:12;;;;;;;3.85;2.78;;;;;;;26.89;28.95;101599.25;6227514;28;20316;-69
2023/05/14 13:59:34;;;;;;;2.35;2.13;;;;;;;26.01;29.51;101586.34;6235433;28;20240;-69
2023/05/14 14:02:55;;;;;;;2.35;2.15;;;;;;;25.61;29.62;101584.81;6236145;28;20237;-69
2023/05/14 14:06:16;;;;;;;1.45;1.35;;;;;;;25.57;30.07;101586.31;6237135;28;20225;-69
2023/05/14 14:09:37;;;;;;;3.15;2.00;;;;;;;25.46;29.98;101586.13;6230005;28;20279;-70
2023/05/14 14:12:57;;;;;;;2.40;1.58;;;;;;;25.62;29.95;101575.44;6215875;28;20233;-69
2023/05/14 14:16:20;;;;;;;1.67;1.42;;;;;;;25.70;30.47;101572.44;6218237;28;20237;-69
2023/05/14 14:19:40;;;;;;;2.92;1.73;;;;;;;25.95;30.06;101575.34;6236989;28;20224;-69
2023/05/14 14:23:01;;;;;;;3.00;2.00;;;;;;;26.03;29.98;101564.03;6198386;28;20650;-70
2023/05/14 14:26:22;;;;;;;3.97;2.55;;;;;;;25.79;30.43;101554.56;6238016;28;20228;-69
2023/05/14 14:29:43;;;;;;;10.68;2.88;;;;;;;25.64;30.83;101559.50;6238623;28;20705;-70
2023/05/14 14:33:06;;;;;;;4.18;2.10;;;;;;;25.80;30.72;101545.22;6224479;28;20231;-69
2023/05/14 14:36:27;;;;;;;3.95;2.15;;;;;;;25.93;30.46;101544.31;6237619;28;20751;-69
2023/05/14 14:39:48;;;;;;;2.08;1.98;;;;;;;26.05;30.20;101535.09;6228149;28;20240;-70
2023/05/14 14:43:09;;;;;;;2.42;2.22;;;;;;;26.66;30.51;101538.09;6220707;28;20259;-68
2023/05/14 14:46:31;;;;;;;2.38;2.25;;;;;;;26.96;29.44;101529.97;6206518;28;20229;-68
2023/05/14 14:49:53;;;;;;;7.72;6.35;;;;;;;27.20;29.58;101533.78;6216471;28;20319;-67
2023/05/14 14:53:14;;;;;;;4.63;3.60;;;;;;;27.12;29.22;101529.38;6216004;28;20233;-68
2023/05/14 14:56:35;;;;;;;2.67;2.17;;;;;;;26.88;29.29;101528.34;6223420;28;20224;-69
2023/05/14 14:59:55;;;;;;;1.90;1.80;;;;;;;26.76;29.48;101526.56;6223787;28;22011;-67
2023/05/14 15:03:17;;;;;;;2.42;2.33;;;;;;;26.96;29.46;101518.91;6218888;28;20507;-69
2023/05/14 15:06:39;;;;;;;2.15;2.05;;;;;;;27.23;29.46;101522.25;6220151;28;20300;-68
2023/05/14 15:10:00;;;;;;;1.80;1.70;;;;;;;26.97;29.14;101520.63;6220067;28;20850;-69
2023/05/14 15:13:21;;;;;;;2.45;2.25;;;;;;;27.01;29.07;101515.47;6236074;28;20220;-69
2023/05/14 15:16:42;;;;;;;2.80;2.05;;;;;;;27.28;28.96;101514.97;6227541;28;20268;-67
2023/05/14 15:20:04;;;;;;;1.75;1.65;;;;;;;27.72;30.26;101512.97;6207539;28;20232;-67
2023/05/14 15:23:26;;;;;;;1.77;1.70;;;;;;;27.18;29.34;101511.84;6222966;28;20618;-68
2023/05/14 15:26:47;;;;;;;2.90;2.60;;;;;;;27.29;30.15;101502.78;6218659;28;20232;-67
2023/05/14 15:30:09;;;;;;;2.55;2.35;;;;;;;26.86;28.88;101499.22;6230856;28;20634;-69
2023/05/14 15:33:30;;;;;;;3.03;2.47;;;;;;;27.30;30.07;101487.88;6231022;28;20232;-69
2023/05/14 15:36:50;;;;;;;2.85;1.75;;;;;;;26.96;29.05;101495.91;6228321;28;20233;-69